Time,TemperatureF,DewpointF,PressureIn,WindDirection,WindDirectionDegrees,WindSpeedMPH,WindSpeedGustMPH,Humidity,HourlyPrecipIn,Conditions,Clouds,dailyrainin,SoftwareType,DateUTC
2013-02-04 00:01:00,16.8,15.1,29.82,WNW,298,1.0,1.0,93,0.00,,,0.00,Wunderground v.1.15,2013-02-04 05:01:00,
2013-02-04 00:02:00,16.7,15.0,29.83,WNW,284,1.0,1.0,93,0.00,,,0.00,Wunderground v.1.15,2013-02-04 05:02:00,
2013-02-04 00:03:00,16.8,15.1,29.83,NW,308,1.0,2.0,93,0.00,,,0.00,Wunderground v.1.15,2013-02-04 05:03:00,
2013-02-04 00:09:00,16.8,14.9,29.83,West,273,1.0,2.0,92,0.00,,,0.00,Wunderground v.1.15,2013-02-04 05:09:00,
2013-02-04 00:10:00,16.8,14.9,29.83,West,281,1.0,1.0,92,0.00,,,0.00,Wunderground v.1.15,2013-02-04 05:10:00,
2013-02-04 00:16:00,16.8,14.9,29.83,West,275,1.0,1.0,92,0.00,,,0.00,Wunderground v.1.15,2013-02-04 05:16:00,
2013-02-04 00:22:00,16.8,14.9,29.83,WNW,301,0.0,1.0,92,0.00,,,0.00,Wunderground v.1.15,2013-02-04 05:22:00,
2013-02-04 00:27:00,16.7,14.8,29.83,WNW,288,1.0,2.0,92,0.00,,,0.00,Wunderground v.1.15,2013-02-04 05:27:00,
2013-02-04 00:33:00,16.7,14.8,29.83,NW,305,1.0,2.0,92,0.00,,,0.00,Wunderground v.1.15,2013-02-04 05:33:00,
2013-02-04 00:39:00,16.6,14.7,29.83,WNW,291,1.0,2.0,92,0.00,,,0.00,Wunderground v.1.15,2013-02-04 05:39:00,
2013-02-04 00:45:00,16.6,14.7,29.83,WSW,252,1.0,1.0,92,0.00,,,0.00,Wunderground v.1.15,2013-02-04 05:45:00,
2013-02-04 00:51:00,16.5,14.6,29.83,NW,310,2.0,2.0,92,0.00,,,0.00,Wunderground v.1.15,2013-02-04 05:51:00,
2013-02-04 00:57:00,16.4,14.5,29.83,West,273,2.0,7.0,92,0.00,,,0.00,Wunderground v.1.15,2013-02-04 05:57:00,
2013-02-04 01:02:00,16.4,14.5,29.83,WNW,287,2.0,2.0,92,0.00,,,0.00,Wunderground v.1.15,2013-02-04 06:02:00,
2013-02-04 01:08:00,16.3,14.4,29.83,West,281,1.0,3.0,92,0.00,,,0.00,Wunderground v.1.15,2013-02-04 06:08:00,
2013-02-04 01:14:00,16.2,14.0,29.84,NW,318,2.0,3.0,91,0.00,,,0.00,Wunderground v.1.15,2013-02-04 06:14:00,
2013-02-04 01:20:00,16.0,13.8,29.84,WSW,255,2.0,4.0,91,0.00,,,0.00,Wunderground v.1.15,2013-02-04 06:20:00,
2013-02-04 01:26:00,15.9,13.5,29.84,NW,311,2.0,4.0,90,0.00,,,0.00,Wunderground v.1.15,2013-02-04 06:26:00,
2013-02-04 01:32:00,15.7,13.3,29.84,NW,304,2.0,6.0,90,0.00,,,0.00,Wunderground v.1.15,2013-02-04 06:32:00,
2013-02-04 01:38:00,15.6,13.2,29.84,NW,310,2.0,6.0,90,0.00,,,0.00,Wunderground v.1.15,2013-02-04 06:38:00,
2013-02-04 01:43:00,15.5,13.3,29.84,West,278,2.0,2.0,91,0.00,,,0.00,Wunderground v.1.15,2013-02-04 06:43:00,
2013-02-04 01:49:00,15.5,13.3,29.84,WNW,284,1.0,2.0,91,0.00,,,0.00,Wunderground v.1.15,2013-02-04 06:49:00,
2013-02-04 01:55:00,15.4,13.2,29.84,WNW,287,2.0,5.0,91,0.00,,,0.00,Wunderground v.1.15,2013-02-04 06:55:00,
2013-02-04 02:00:00,15.3,12.9,29.84,NNW,334,3.0,4.0,90,0.00,,,0.00,Wunderground v.1.15,2013-02-04 07:00:00,
2013-02-04 02:06:00,15.0,12.1,29.85,WSW,255,4.0,7.0,88,0.00,,,0.00,Wunderground v.1.15,2013-02-04 07:06:00,
2013-02-04 02:12:00,14.9,12.0,29.85,WNW,301,4.0,6.0,88,0.00,,,0.00,Wunderground v.1.15,2013-02-04 07:12:00,
2013-02-04 02:18:00,14.8,12.1,29.85,West,274,4.0,6.0,89,0.00,,,0.00,Wunderground v.1.15,2013-02-04 07:18:00,
2013-02-04 02:24:00,14.7,12.0,29.85,NNW,338,3.0,4.0,89,0.00,,,0.00,Wunderground v.1.15,2013-02-04 07:24:00,
2013-02-04 02:30:00,14.7,12.0,29.85,NW,326,3.0,6.0,89,0.00,,,0.00,Wunderground v.1.15,2013-02-04 07:30:00,
2013-02-04 02:36:00,14.6,11.9,29.85,West,277,3.0,6.0,89,0.00,,,0.00,Wunderground v.1.15,2013-02-04 07:36:00,
2013-02-04 02:41:00,14.5,11.6,29.85,West,271,2.0,3.0,88,0.00,,,0.00,Wunderground v.1.15,2013-02-04 07:41:00,
2013-02-04 02:47:00,14.3,11.4,29.85,WNW,293,2.0,3.0,88,0.00,,,0.00,Wunderground v.1.15,2013-02-04 07:47:00,
2013-02-04 02:53:00,14.3,11.7,29.85,SW,214,2.0,2.0,89,0.00,,,0.00,Wunderground v.1.15,2013-02-04 07:53:00,
2013-02-04 02:59:00,14.3,11.7,29.85,WSW,254,2.0,3.0,89,0.00,,,0.00,Wunderground v.1.15,2013-02-04 07:59:00,
2013-02-04 03:05:00,14.4,11.2,29.85,WNW,295,3.0,6.0,87,0.00,,,0.00,Wunderground v.1.15,2013-02-04 08:05:00,
2013-02-04 03:11:00,14.5,11.1,29.85,WSW,248,5.0,5.0,86,0.00,,,0.00,Wunderground v.1.15,2013-02-04 08:11:00,
2013-02-04 03:17:00,14.5,11.1,29.85,WSW,252,4.0,5.0,86,0.00,,,0.00,Wunderground v.1.15,2013-02-04 08:17:00,
2013-02-04 03:22:00,14.5,11.1,29.86,West,278,5.0,7.0,86,0.00,,,0.00,Wunderground v.1.15,2013-02-04 08:22:00,
2013-02-04 03:28:00,14.4,10.7,29.86,West,262,5.0,7.0,85,0.00,,,0.00,Wunderground v.1.15,2013-02-04 08:28:00,
2013-02-04 03:34:00,14.3,10.9,29.86,West,280,4.0,5.0,86,0.00,,,0.00,Wunderground v.1.15,2013-02-04 08:34:00,
2013-02-04 03:40:00,14.2,10.5,29.86,WNW,291,4.0,5.0,85,0.00,,,0.00,Wunderground v.1.15,2013-02-04 08:40:00,
2013-02-04 03:46:00,14.2,10.5,29.86,West,271,4.0,5.0,85,0.00,,,0.00,Wunderground v.1.15,2013-02-04 08:46:00,
2013-02-04 03:52:00,14.1,10.2,29.86,WSW,245,3.0,4.0,84,0.00,,,0.00,Wunderground v.1.15,2013-02-04 08:52:00,
2013-02-04 03:58:00,14.0,10.1,29.86,West,280,3.0,5.0,84,0.00,,,0.00,Wunderground v.1.15,2013-02-04 08:58:00,
2013-02-04 04:03:00,14.0,9.8,29.86,WNW,292,3.0,5.0,83,0.00,,,0.00,Wunderground v.1.15,2013-02-04 09:03:00,
2013-02-04 04:09:00,14.0,9.8,29.86,NW,307,4.0,9.0,83,0.00,,,0.00,Wunderground v.1.15,2013-02-04 09:09:00,
2013-02-04 04:15:00,14.0,10.1,29.86,WNW,291,4.0,6.0,84,0.00,,,0.00,Wunderground v.1.15,2013-02-04 09:15:00,
2013-02-04 04:21:00,13.9,10.2,29.86,NW,321,4.0,8.0,85,0.00,,,0.00,Wunderground v.1.15,2013-02-04 09:21:00,
2013-02-04 04:27:00,13.9,10.5,29.87,West,274,4.0,8.0,86,0.00,,,0.00,Wunderground v.1.15,2013-02-04 09:27:00,
2013-02-04 04:33:00,13.7,10.3,29.87,West,281,4.0,5.0,86,0.00,,,0.00,Wunderground v.1.15,2013-02-04 09:33:00,
2013-02-04 04:39:00,13.7,10.3,29.87,West,273,4.0,10.0,86,0.00,,,0.00,Wunderground v.1.15,2013-02-04 09:39:00,
2013-02-04 04:44:00,13.6,10.2,29.87,West,277,3.0,4.0,86,0.00,,,0.00,Wunderground v.1.15,2013-02-04 09:44:00,
2013-02-04 04:50:00,13.5,10.1,29.87,WSW,245,3.0,4.0,86,0.00,,,0.00,Wunderground v.1.15,2013-02-04 09:50:00,
2013-02-04 04:56:00,13.6,10.2,29.87,West,269,4.0,6.0,86,0.00,,,0.00,Wunderground v.1.15,2013-02-04 09:56:00,
2013-02-04 05:02:00,13.6,10.2,29.87,WNW,290,3.0,3.0,86,0.00,,,0.00,Wunderground v.1.15,2013-02-04 10:02:00,
2013-02-04 05:08:00,13.5,10.1,29.88,NNW,341,3.0,6.0,86,0.00,,,0.00,Wunderground v.1.15,2013-02-04 10:08:00,
2013-02-04 05:14:00,13.4,9.7,29.88,SSW,197,4.0,8.0,85,0.00,,,0.00,Wunderground v.1.15,2013-02-04 10:14:00,
2013-02-04 05:20:00,13.4,9.7,29.88,West,281,5.0,8.0,85,0.00,,,0.00,Wunderground v.1.15,2013-02-04 10:20:00,
2013-02-04 05:25:00,13.3,9.6,29.88,NW,311,5.0,8.0,85,0.00,,,0.00,Wunderground v.1.15,2013-02-04 10:25:00,
2013-02-04 05:31:00,13.2,9.3,29.89,NW,304,4.0,8.0,84,0.00,,,0.00,Wunderground v.1.15,2013-02-04 10:31:00,
2013-02-04 05:37:00,13.1,9.2,29.89,WSW,241,4.0,8.0,84,0.00,,,0.00,Wunderground v.1.15,2013-02-04 10:37:00,
2013-02-04 05:43:00,12.9,9.0,29.89,West,267,4.0,7.0,84,0.00,,,0.00,Wunderground v.1.15,2013-02-04 10:43:00,
2013-02-04 05:48:00,12.6,8.7,29.89,West,271,5.0,7.0,84,0.00,,,0.00,Wunderground v.1.15,2013-02-04 10:48:00,
2013-02-04 05:54:00,12.4,8.5,29.89,WNW,300,4.0,7.0,84,0.00,,,0.00,Wunderground v.1.15,2013-02-04 10:54:00,
2013-02-04 06:01:00,12.1,8.2,29.89,West,278,3.0,3.0,84,0.00,,,0.00,Wunderground v.1.15,2013-02-04 11:01:00,
2013-02-04 06:06:00,12.0,8.1,29.89,West,278,2.0,15.0,84,0.00,,,0.00,Wunderground v.1.15,2013-02-04 11:06:00,
2013-02-04 06:12:00,12.1,8.5,29.90,WSW,256,3.0,15.0,85,0.00,,,0.00,Wunderground v.1.15,2013-02-04 11:12:00,
2013-02-04 06:17:00,12.2,8.6,29.90,SSE,167,4.0,15.0,85,0.00,,,0.00,Wunderground v.1.15,2013-02-04 11:17:00,
2013-02-04 06:23:00,12.3,8.7,29.90,West,276,4.0,15.0,85,0.00,,,0.00,Wunderground v.1.15,2013-02-04 11:23:00,
2013-02-04 06:29:00,12.3,8.7,29.91,WNW,284,4.0,15.0,85,0.00,,,0.00,Wunderground v.1.15,2013-02-04 11:29:00,
2013-02-04 06:35:00,12.3,8.7,29.90,West,273,5.0,15.0,85,0.00,,,0.00,Wunderground v.1.15,2013-02-04 11:35:00,
2013-02-04 06:41:00,12.3,8.7,29.91,WSW,239,5.0,7.0,85,0.00,,,0.00,Wunderground v.1.15,2013-02-04 11:41:00,
2013-02-04 06:47:00,12.3,8.7,29.90,West,271,4.0,15.0,85,0.00,,,0.00,Wunderground v.1.15,2013-02-04 11:47:00,
2013-02-04 06:53:00,12.2,8.3,29.90,West,276,4.0,15.0,84,0.00,,,0.00,Wunderground v.1.15,2013-02-04 11:53:00,
2013-02-04 06:59:00,12.1,8.5,29.90,West,276,4.0,15.0,85,0.00,,,0.00,Wunderground v.1.15,2013-02-04 11:59:00,
2013-02-04 07:05:00,11.8,7.9,29.90,SSW,196,3.0,15.0,84,0.00,,,0.00,Wunderground v.1.15,2013-02-04 12:05:00,
2013-02-04 07:10:00,11.7,8.1,29.90,West,264,3.0,3.0,85,0.00,,,0.00,Wunderground v.1.15,2013-02-04 12:10:00,
2013-02-04 07:16:00,11.7,8.1,29.90,West,262,4.0,15.0,85,0.00,,,0.00,Wunderground v.1.15,2013-02-04 12:16:00,
2013-02-04 07:22:00,11.7,8.1,29.90,SSW,207,3.0,13.0,85,0.00,,,0.00,Wunderground v.1.15,2013-02-04 12:22:00,
2013-02-04 07:27:00,11.8,8.2,29.90,WSW,240,4.0,13.0,85,0.00,,,0.00,Wunderground v.1.15,2013-02-04 12:27:00,
2013-02-04 07:33:00,11.9,8.3,29.90,NW,308,5.0,13.0,85,0.00,,,0.00,Wunderground v.1.15,2013-02-04 12:33:00,
2013-02-04 07:38:00,11.9,8.3,29.91,WNW,290,4.0,13.0,85,0.00,,,0.00,Wunderground v.1.15,2013-02-04 12:38:00,
2013-02-04 07:43:00,12.0,8.4,29.91,NW,314,4.0,13.0,85,0.00,,,0.00,Wunderground v.1.15,2013-02-04 12:43:00,
2013-02-04 07:48:00,12.1,8.5,29.91,SW,221,4.0,13.0,85,0.00,,,0.00,Wunderground v.1.15,2013-02-04 12:48:00,
2013-02-04 07:53:00,12.1,8.5,29.91,West,266,4.0,13.0,85,0.00,,,0.00,Wunderground v.1.15,2013-02-04 12:53:00,
2013-02-04 07:58:00,12.1,8.5,29.91,WNW,295,5.0,13.0,85,0.00,,,0.00,Wunderground v.1.15,2013-02-04 12:58:00,
2013-02-04 08:03:00,12.1,8.5,29.91,West,269,5.0,13.0,85,0.00,,,0.00,Wunderground v.1.15,2013-02-04 13:03:00,
2013-02-04 08:08:00,12.2,8.6,29.92,SW,216,4.0,13.0,85,0.00,,,0.00,Wunderground v.1.15,2013-02-04 13:08:00,
2013-02-04 08:13:00,12.2,8.8,29.91,WNW,295,5.0,13.0,86,0.00,,,0.00,Wunderground v.1.15,2013-02-04 13:13:00,
2013-02-04 08:18:00,12.3,8.9,29.91,West,274,4.0,13.0,86,0.00,,,0.00,Wunderground v.1.15,2013-02-04 13:18:00,
2013-02-04 08:23:00,12.3,8.9,29.92,WNW,288,3.0,13.0,86,0.00,,,0.00,Wunderground v.1.15,2013-02-04 13:23:00,
2013-02-04 08:29:00,12.4,8.7,29.92,West,276,4.0,13.0,85,0.00,,,0.00,Wunderground v.1.15,2013-02-04 13:29:00,
2013-02-04 08:34:00,12.5,8.8,29.92,WNW,299,3.0,13.0,85,0.00,,,0.00,Wunderground v.1.15,2013-02-04 13:34:00,
2013-02-04 08:39:00,12.6,8.9,29.92,WNW,284,2.0,13.0,85,0.00,,,0.00,Wunderground v.1.15,2013-02-04 13:39:00,
2013-02-04 08:44:00,12.8,9.1,29.92,West,280,2.0,13.0,85,0.00,,,0.00,Wunderground v.1.15,2013-02-04 13:44:00,
2013-02-04 08:49:00,12.9,9.2,29.92,NW,321,4.0,13.0,85,0.00,,,0.00,Wunderground v.1.15,2013-02-04 13:49:00,
2013-02-04 08:55:00,13.2,9.5,29.92,WNW,290,4.0,13.0,85,0.00,,,0.00,Wunderground v.1.15,2013-02-04 13:55:00,
2013-02-04 09:00:00,13.3,9.6,29.92,West,267,4.0,13.0,85,0.00,,,0.00,Wunderground v.1.15,2013-02-04 14:00:00,
2013-02-04 09:05:00,13.3,9.9,29.92,WSW,239,4.0,13.0,86,0.00,,,0.00,Wunderground v.1.15,2013-02-04 14:05:00,
2013-02-04 09:10:00,13.5,10.1,29.92,SSW,210,3.0,3.0,86,0.00,,,0.00,Wunderground v.1.15,2013-02-04 14:10:00,
2013-02-04 09:15:00,13.6,9.9,29.92,West,274,3.0,13.0,85,0.00,,,0.00,Wunderground v.1.15,2013-02-04 14:15:00,
2013-02-04 09:21:00,14.0,10.1,29.92,West,276,3.0,13.0,84,0.00,,,0.00,Wunderground v.1.15,2013-02-04 14:21:00,
2013-02-04 09:26:00,14.0,10.1,29.92,SW,221,4.0,13.0,84,0.00,,,0.00,Wunderground v.1.15,2013-02-04 14:26:00,
2013-02-04 09:31:00,14.3,10.1,29.92,West,260,4.0,13.0,83,0.00,,,0.00,Wunderground v.1.15,2013-02-04 14:31:00,
2013-02-04 09:36:00,14.7,10.5,29.92,WNW,298,4.0,13.0,83,0.00,,,0.00,Wunderground v.1.15,2013-02-04 14:36:00,
2013-02-04 09:41:00,15.2,10.7,29.92,NW,319,4.0,13.0,82,0.00,,,0.00,Wunderground v.1.15,2013-02-04 14:41:00,
2013-02-04 09:47:00,15.3,10.5,29.92,NNW,332,5.0,13.0,81,0.00,,,0.00,Wunderground v.1.15,2013-02-04 14:47:00,
2013-02-04 09:52:00,15.5,10.4,29.92,West,281,5.0,13.0,80,0.00,,,0.00,Wunderground v.1.15,2013-02-04 14:52:00,
2013-02-04 09:57:00,15.4,10.1,29.92,WNW,287,6.0,13.0,79,0.00,,,0.00,Wunderground v.1.15,2013-02-04 14:57:00,
2013-02-04 10:02:00,15.4,10.3,29.92,West,273,6.0,13.0,80,0.00,,,0.00,Wunderground v.1.15,2013-02-04 15:02:00,
2013-02-04 10:07:00,15.8,10.4,29.92,NW,321,5.0,13.0,79,0.00,,,0.00,Wunderground v.1.15,2013-02-04 15:07:00,
2013-02-04 10:13:00,16.3,10.6,29.92,WSW,246,4.0,13.0,78,0.00,,,0.00,Wunderground v.1.15,2013-02-04 15:13:00,
2013-02-04 10:18:00,16.4,10.4,29.92,NNW,343,4.0,13.0,77,0.00,,,0.00,Wunderground v.1.15,2013-02-04 15:18:00,
2013-02-04 10:23:00,16.3,10.1,29.91,WSW,256,4.0,13.0,76,0.00,,,0.00,Wunderground v.1.15,2013-02-04 15:23:00,
2013-02-04 10:28:00,16.0,9.8,29.92,West,280,5.0,13.0,76,0.00,,,0.00,Wunderground v.1.15,2013-02-04 15:28:00,
2013-02-04 10:33:00,15.8,9.6,29.91,WNW,291,6.0,13.0,76,0.00,,,0.00,Wunderground v.1.15,2013-02-04 15:33:00,
2013-02-04 10:39:00,15.7,9.5,29.92,SW,214,6.0,13.0,76,0.00,,,0.00,Wunderground v.1.15,2013-02-04 15:39:00,
2013-02-04 10:44:00,15.7,9.2,29.91,WNW,285,5.0,13.0,75,0.00,,,0.00,Wunderground v.1.15,2013-02-04 15:44:00,
2013-02-04 10:49:00,16.0,9.8,29.91,WNW,283,4.0,13.0,76,0.00,,,0.00,Wunderground v.1.15,2013-02-04 15:49:00,
2013-02-04 10:54:00,16.0,9.8,29.91,West,274,5.0,13.0,76,0.00,,,0.00,Wunderground v.1.15,2013-02-04 15:54:00,
2013-02-04 10:59:00,16.2,10.0,29.91,SW,231,5.0,13.0,76,0.00,,,0.00,Wunderground v.1.15,2013-02-04 15:59:00,
2013-02-04 11:05:00,16.6,10.1,29.91,NW,305,4.0,13.0,75,0.00,,,0.00,Wunderground v.1.15,2013-02-04 16:05:00,
2013-02-04 11:10:00,16.5,9.4,29.91,West,263,6.0,13.0,73,0.00,,,0.00,Wunderground v.1.15,2013-02-04 16:10:00,
2013-02-04 11:15:00,16.4,8.6,29.91,WNW,297,7.0,14.0,71,0.00,,,0.00,Wunderground v.1.15,2013-02-04 16:15:00,
2013-02-04 11:20:00,16.3,8.5,29.91,West,277,7.0,13.0,71,0.00,,,0.00,Wunderground v.1.15,2013-02-04 16:20:00,
2013-02-04 11:25:00,16.4,8.6,29.91,SSE,155,6.0,13.0,71,0.00,,,0.00,Wunderground v.1.15,2013-02-04 16:25:00,
2013-02-04 11:31:00,16.8,9.0,29.91,West,262,5.0,13.0,71,0.00,,,0.00,Wunderground v.1.15,2013-02-04 16:31:00,
2013-02-04 11:36:00,17.0,9.2,29.91,West,273,4.0,13.0,71,0.00,,,0.00,Wunderground v.1.15,2013-02-04 16:36:00,
2013-02-04 11:41:00,17.1,8.7,29.91,WNW,284,4.0,10.0,69,0.00,,,0.00,Wunderground v.1.15,2013-02-04 16:41:00,
2013-02-04 11:46:00,17.1,8.3,29.91,WNW,291,5.0,13.0,68,0.00,,,0.00,Wunderground v.1.15,2013-02-04 16:46:00,
2013-02-04 11:51:00,17.2,8.4,29.90,South,190,6.0,13.0,68,0.00,,,0.00,Wunderground v.1.15,2013-02-04 16:51:00,
2013-02-04 11:56:00,17.4,9.0,29.90,WNW,285,5.0,13.0,69,0.00,,,0.00,Wunderground v.1.15,2013-02-04 16:56:00,
2013-02-04 12:01:00,17.5,8.4,29.90,WSW,246,4.0,13.0,67,0.00,,,0.00,Wunderground v.1.15,2013-02-04 17:01:00,
2013-02-04 12:06:00,17.3,7.9,29.90,West,278,5.0,13.0,66,0.00,,,0.00,Wunderground v.1.15,2013-02-04 17:06:00,
2013-02-04 12:11:00,17.2,7.8,29.90,SW,218,7.0,13.0,66,0.00,,,0.00,Wunderground v.1.15,2013-02-04 17:11:00,
2013-02-04 12:16:00,17.1,8.0,29.90,WSW,256,6.0,13.0,67,0.00,,,0.00,Wunderground v.1.15,2013-02-04 17:16:00,
2013-02-04 12:22:00,17.1,7.7,29.91,WNW,302,7.0,13.0,66,0.00,,,0.00,Wunderground v.1.15,2013-02-04 17:22:00,
2013-02-04 12:27:00,17.4,8.0,29.90,SW,217,6.0,13.0,66,0.00,,,0.00,Wunderground v.1.15,2013-02-04 17:27:00,
2013-02-04 12:32:00,17.7,7.9,29.90,NW,308,6.0,13.0,65,0.00,,,0.00,Wunderground v.1.15,2013-02-04 17:32:00,
2013-02-04 12:37:00,17.9,7.8,29.90,NW,317,6.0,13.0,64,0.00,,,0.00,Wunderground v.1.15,2013-02-04 17:37:00,
2013-02-04 12:42:00,18.0,7.5,29.90,WNW,298,7.0,13.0,63,0.00,,,0.00,Wunderground v.1.15,2013-02-04 17:42:00,
2013-02-04 12:47:00,18.2,7.3,29.91,SW,221,6.0,13.0,62,0.00,,,0.00,Wunderground v.1.15,2013-02-04 17:47:00,
2013-02-04 12:53:00,18.2,6.3,29.90,NNW,342,8.0,14.0,59,0.00,,,0.00,Wunderground v.1.15,2013-02-04 17:53:00,
2013-02-04 12:58:00,18.3,7.1,29.91,West,266,8.0,14.0,61,0.00,,,0.00,Wunderground v.1.15,2013-02-04 17:58:00,
2013-02-04 13:03:00,18.2,6.3,29.91,SW,226,7.0,13.0,59,0.00,,,0.00,Wunderground v.1.15,2013-02-04 18:03:00,
2013-02-04 13:08:00,18.6,6.3,29.90,West,269,8.0,13.0,58,0.00,,,0.00,Wunderground v.1.15,2013-02-04 18:08:00,
2013-02-04 13:13:00,18.4,5.7,29.91,WNW,285,7.0,13.0,57,0.00,,,0.00,Wunderground v.1.15,2013-02-04 18:13:00,
2013-02-04 13:18:00,18.1,6.2,29.91,SW,226,7.0,13.0,59,0.00,,,0.00,Wunderground v.1.15,2013-02-04 18:18:00,
2013-02-04 13:23:00,18.3,6.7,29.91,West,269,6.0,15.0,60,0.00,,,0.00,Wunderground v.1.15,2013-02-04 18:23:00,
2013-02-04 13:28:00,18.3,6.0,29.91,WNW,293,6.0,15.0,58,0.00,,,0.00,Wunderground v.1.15,2013-02-04 18:28:00,
2013-02-04 13:33:00,18.8,5.7,29.91,NW,307,7.0,13.0,56,0.00,,,0.00,Wunderground v.1.15,2013-02-04 18:33:00,
2013-02-04 13:38:00,18.8,4.9,29.91,NNW,338,8.0,13.0,54,0.00,,,0.00,Wunderground v.1.15,2013-02-04 18:38:00,
2013-02-04 13:44:00,18.2,4.3,29.91,West,277,8.0,13.0,54,0.00,,,0.00,Wunderground v.1.15,2013-02-04 18:44:00,
2013-02-04 13:49:00,17.7,4.6,29.91,West,276,6.0,13.0,56,0.00,,,0.00,Wunderground v.1.15,2013-02-04 18:49:00,
2013-02-04 13:54:00,17.5,4.5,29.91,WNW,290,7.0,13.0,56,0.00,,,0.00,Wunderground v.1.15,2013-02-04 18:54:00,
2013-02-04 13:59:00,17.6,4.2,29.91,WNW,297,7.0,13.0,55,0.00,,,0.00,Wunderground v.1.15,2013-02-04 18:59:00,
2013-02-04 14:04:00,18.4,5.3,29.91,West,259,7.0,13.0,56,0.00,,,0.00,Wunderground v.1.15,2013-02-04 19:04:00,
2013-02-04 14:09:00,19.2,6.4,29.91,SSW,193,7.0,13.0,57,0.00,,,0.00,Wunderground v.1.15,2013-02-04 19:09:00,
2013-02-04 14:15:00,18.6,6.6,29.91,WNW,294,6.0,13.0,59,0.00,,,0.00,Wunderground v.1.15,2013-02-04 19:15:00,
2013-02-04 14:21:00,17.5,5.2,29.91,WNW,294,7.0,13.0,58,0.00,,,0.00,Wunderground v.1.15,2013-02-04 19:21:00,
2013-02-04 14:26:00,17.6,4.9,29.91,West,280,6.0,13.0,57,0.00,,,0.00,Wunderground v.1.15,2013-02-04 19:26:00,
2013-02-04 14:31:00,17.3,4.3,29.91,WNW,295,6.0,13.0,56,0.00,,,0.00,Wunderground v.1.15,2013-02-04 19:31:00,
2013-02-04 14:37:00,17.9,5.6,29.92,West,277,7.0,13.0,58,0.00,,,0.00,Wunderground v.1.15,2013-02-04 19:37:00,
2013-02-04 14:42:00,17.7,5.4,29.92,NW,323,6.0,13.0,58,0.00,,,0.00,Wunderground v.1.15,2013-02-04 19:42:00,
2013-02-04 14:47:00,17.3,5.8,29.92,NNW,345,6.0,13.0,60,0.00,,,0.00,Wunderground v.1.15,2013-02-04 19:47:00,
2013-02-04 14:52:00,16.8,6.0,29.92,SW,232,6.0,13.0,62,0.00,,,0.00,Wunderground v.1.15,2013-02-04 19:52:00,
2013-02-04 14:57:00,16.6,5.8,29.92,West,260,6.0,13.0,62,0.00,,,0.00,Wunderground v.1.15,2013-02-04 19:57:00,
2013-02-04 15:02:00,16.5,6.1,29.92,NNW,328,6.0,13.0,63,0.00,,,0.00,Wunderground v.1.15,2013-02-04 20:02:00,
2013-02-04 15:07:00,16.9,6.5,29.92,WNW,295,6.0,13.0,63,0.00,,,0.00,Wunderground v.1.15,2013-02-04 20:07:00,
2013-02-04 15:12:00,16.8,5.7,29.92,WNW,288,6.0,13.0,61,0.00,,,0.00,Wunderground v.1.15,2013-02-04 20:12:00,
2013-02-04 15:17:00,16.6,5.1,29.93,West,271,7.0,13.0,60,0.00,,,0.00,Wunderground v.1.15,2013-02-04 20:17:00,
2013-02-04 15:22:00,16.4,5.3,29.93,SSW,193,7.0,13.0,61,0.00,,,0.00,Wunderground v.1.15,2013-02-04 20:22:00,
2013-02-04 15:27:00,16.5,5.4,29.93,NW,309,6.0,13.0,61,0.00,,,0.00,Wunderground v.1.15,2013-02-04 20:27:00,
2013-02-04 15:33:00,17.0,5.5,29.93,WNW,283,5.0,13.0,60,0.00,,,0.00,Wunderground v.1.15,2013-02-04 20:33:00,
2013-02-04 15:38:00,17.1,4.5,29.93,West,273,5.0,13.0,57,0.00,,,0.00,Wunderground v.1.15,2013-02-04 20:38:00,
2013-02-04 15:43:00,17.1,4.5,29.93,WSW,257,6.0,13.0,57,0.00,,,0.00,Wunderground v.1.15,2013-02-04 20:43:00,
2013-02-04 15:48:00,17.0,4.7,29.93,WNW,293,5.0,13.0,58,0.00,,,0.00,Wunderground v.1.15,2013-02-04 20:48:00,
2013-02-04 15:53:00,16.7,5.2,29.92,WSW,245,5.0,13.0,60,0.00,,,0.00,Wunderground v.1.15,2013-02-04 20:53:00,
2013-02-04 15:59:00,16.6,5.1,29.93,WNW,296,6.0,13.0,60,0.00,,,0.00,Wunderground v.1.15,2013-02-04 20:59:00,
2013-02-04 16:04:00,16.5,5.0,29.93,North,354,5.0,13.0,60,0.00,,,0.00,Wunderground v.1.15,2013-02-04 21:04:00,
2013-02-04 16:09:00,16.3,4.8,29.93,West,277,5.0,13.0,60,0.00,,,0.00,Wunderground v.1.15,2013-02-04 21:09:00,
2013-02-04 16:14:00,16.2,4.7,29.93,WNW,284,6.0,13.0,60,0.00,,,0.00,Wunderground v.1.15,2013-02-04 21:14:00,
2013-02-04 16:19:00,16.0,5.3,29.93,West,259,5.0,13.0,62,0.00,,,0.00,Wunderground v.1.15,2013-02-04 21:19:00,
2013-02-04 16:25:00,15.9,4.8,29.93,West,266,5.0,13.0,61,0.00,,,0.00,Wunderground v.1.15,2013-02-04 21:25:00,
2013-02-04 16:30:00,15.8,4.7,29.93,WSW,249,6.0,6.0,61,0.00,,,0.00,Wunderground v.1.15,2013-02-04 21:30:00,
2013-02-04 16:35:00,15.9,4.8,29.93,WSW,245,5.0,18.0,61,0.00,,,0.00,Wunderground v.1.15,2013-02-04 21:35:00,
2013-02-04 16:40:00,15.8,5.1,29.93,West,281,4.0,13.0,62,0.00,,,0.00,Wunderground v.1.15,2013-02-04 21:40:00,
2013-02-04 16:45:00,15.7,5.0,29.93,WSW,257,5.0,13.0,62,0.00,,,0.00,Wunderground v.1.15,2013-02-04 21:45:00,
2013-02-04 16:51:00,15.6,5.2,29.93,NW,305,6.0,13.0,63,0.00,,,0.00,Wunderground v.1.15,2013-02-04 21:51:00,
2013-02-04 16:56:00,15.5,5.1,29.93,SW,214,6.0,13.0,63,0.00,,,0.00,Wunderground v.1.15,2013-02-04 21:56:00,
2013-02-04 17:01:00,15.4,5.4,29.93,West,266,5.0,13.0,64,0.00,,,0.00,Wunderground v.1.15,2013-02-04 22:01:00,
2013-02-04 17:06:00,15.3,5.3,29.93,West,271,4.0,13.0,64,0.00,,,0.00,Wunderground v.1.15,2013-02-04 22:06:00,
2013-02-04 17:11:00,15.2,5.9,29.94,West,262,4.0,13.0,66,0.00,,,0.00,Wunderground v.1.15,2013-02-04 22:11:00,
2013-02-04 17:17:00,15.1,6.1,29.93,WNW,288,4.0,13.0,67,0.00,,,0.00,Wunderground v.1.15,2013-02-04 22:17:00,
2013-02-04 17:22:00,15.0,6.0,29.93,WNW,284,6.0,13.0,67,0.00,,,0.00,Wunderground v.1.15,2013-02-04 22:22:00,
2013-02-04 17:28:00,14.9,5.9,29.93,WNW,291,5.0,13.0,67,0.00,,,0.00,Wunderground v.1.15,2013-02-04 22:28:00,
2013-02-04 17:33:00,14.7,6.0,29.94,South,186,4.0,13.0,68,0.00,,,0.00,Wunderground v.1.15,2013-02-04 22:33:00,
2013-02-04 17:38:00,14.5,6.5,29.94,South,170,4.0,13.0,70,0.00,,,0.00,Wunderground v.1.15,2013-02-04 22:38:00,
2013-02-04 17:43:00,14.4,6.4,29.93,WNW,302,4.0,13.0,70,0.00,,,0.00,Wunderground v.1.15,2013-02-04 22:43:00,
2013-02-04 17:48:00,14.3,6.6,29.94,West,281,4.0,13.0,71,0.00,,,0.00,Wunderground v.1.15,2013-02-04 22:48:00,
2013-02-04 17:53:00,14.2,6.8,29.94,West,274,4.0,13.0,72,0.00,,,0.00,Wunderground v.1.15,2013-02-04 22:53:00,
2013-02-04 17:59:00,14.0,6.6,29.93,West,273,3.0,13.0,72,0.00,,,0.00,Wunderground v.1.15,2013-02-04 22:59:00,
2013-02-04 18:04:00,14.0,6.9,29.94,WSW,238,3.0,13.0,73,0.00,,,0.00,Wunderground v.1.15,2013-02-04 23:04:00,
2013-02-04 18:09:00,13.9,6.8,29.94,West,278,3.0,13.0,73,0.00,,,0.00,Wunderground v.1.15,2013-02-04 23:09:00,
2013-02-04 18:14:00,13.7,6.9,29.94,WSW,245,3.0,13.0,74,0.00,,,0.00,Wunderground v.1.15,2013-02-04 23:14:00,
2013-02-04 18:19:00,13.6,7.1,29.94,WSW,250,3.0,13.0,75,0.00,,,0.00,Wunderground v.1.15,2013-02-04 23:19:00,
2013-02-04 18:24:00,13.3,6.9,29.94,West,276,2.0,13.0,75,0.00,,,0.00,Wunderground v.1.15,2013-02-04 23:24:00,
2013-02-04 18:29:00,13.4,7.2,29.95,SW,221,2.0,13.0,76,0.00,,,0.00,Wunderground v.1.15,2013-02-04 23:29:00,
2013-02-04 18:35:00,13.4,7.2,29.95,WSW,256,2.0,13.0,76,0.00,,,0.00,Wunderground v.1.15,2013-02-04 23:35:00,
2013-02-04 18:40:00,13.2,7.0,29.95,West,281,2.0,13.0,76,0.00,,,0.00,Wunderground v.1.15,2013-02-04 23:40:00,
2013-02-04 18:45:00,13.2,7.3,29.95,WNW,295,2.0,13.0,77,0.00,,,0.00,Wunderground v.1.15,2013-02-04 23:45:00,
2013-02-04 18:50:00,13.2,7.3,29.95,WSW,250,3.0,13.0,77,0.00,,,0.00,Wunderground v.1.15,2013-02-04 23:50:00,
2013-02-04 18:55:00,13.2,7.3,29.95,SSW,208,2.0,13.0,77,0.00,,,0.00,Wunderground v.1.15,2013-02-04 23:55:00,
2013-02-04 19:01:00,13.0,7.1,29.95,SSW,211,2.0,13.0,77,0.00,,,0.00,Wunderground v.1.15,2013-02-05 00:01:00,
2013-02-04 19:06:00,13.1,7.2,29.96,West,270,2.0,13.0,77,0.00,,,0.00,Wunderground v.1.15,2013-02-05 00:06:00,
2013-02-04 19:11:00,13.2,7.3,29.96,West,280,3.0,13.0,77,0.00,,,0.00,Wunderground v.1.15,2013-02-05 00:11:00,
2013-02-04 19:16:00,13.2,7.3,29.95,WNW,293,3.0,13.0,77,0.00,,,0.00,Wunderground v.1.15,2013-02-05 00:16:00,
2013-02-04 19:21:00,13.2,7.3,29.95,WSW,242,2.0,13.0,77,0.00,,,0.00,Wunderground v.1.15,2013-02-05 00:21:00,
2013-02-04 19:27:00,13.2,7.3,29.95,NW,314,2.0,13.0,77,0.00,,,0.00,Wunderground v.1.15,2013-02-05 00:27:00,
2013-02-04 19:32:00,13.2,7.3,29.95,WSW,250,1.0,13.0,77,0.00,,,0.00,Wunderground v.1.15,2013-02-05 00:32:00,
2013-02-04 19:37:00,13.1,7.2,29.96,WSW,250,1.0,13.0,77,0.00,,,0.00,Wunderground v.1.15,2013-02-05 00:37:00,
2013-02-04 19:42:00,13.2,7.3,29.96,SSW,204,1.0,13.0,77,0.00,,,0.00,Wunderground v.1.15,2013-02-05 00:42:00,
2013-02-04 19:47:00,13.3,7.4,29.96,South,191,2.0,13.0,77,0.00,,,0.00,Wunderground v.1.15,2013-02-05 00:47:00,
2013-02-04 19:53:00,13.3,7.4,29.96,SSW,210,1.0,13.0,77,0.00,,,0.00,Wunderground v.1.15,2013-02-05 00:53:00,
2013-02-04 19:58:00,13.3,7.4,29.96,WSW,256,1.0,13.0,77,0.00,,,0.00,Wunderground v.1.15,2013-02-05 00:58:00,
2013-02-04 20:03:00,13.4,7.5,29.96,SSW,205,1.0,13.0,77,0.00,,,0.00,Wunderground v.1.15,2013-02-05 01:03:00,
2013-02-04 20:08:00,13.4,7.5,29.97,WNW,287,1.0,13.0,77,0.00,,,0.00,Wunderground v.1.15,2013-02-05 01:08:00,
2013-02-04 20:14:00,13.7,7.8,29.96,WSW,243,2.0,13.0,77,0.00,,,0.00,Wunderground v.1.15,2013-02-05 01:14:00,
2013-02-04 20:19:00,13.9,7.7,29.96,West,269,3.0,13.0,76,0.00,,,0.00,Wunderground v.1.15,2013-02-05 01:19:00,
2013-02-04 20:24:00,13.9,7.7,29.96,WSW,256,2.0,13.0,76,0.00,,,0.00,Wunderground v.1.15,2013-02-05 01:24:00,
2013-02-04 20:29:00,14.0,7.8,29.96,SW,218,2.0,13.0,76,0.00,,,0.00,Wunderground v.1.15,2013-02-05 01:29:00,
2013-02-04 20:34:00,14.1,7.6,29.96,West,262,2.0,13.0,75,0.00,,,0.00,Wunderground v.1.15,2013-02-05 01:34:00,
2013-02-04 20:39:00,14.1,7.6,29.96,WNW,297,2.0,13.0,75,0.00,,,0.00,Wunderground v.1.15,2013-02-05 01:39:00,
2013-02-04 20:45:00,14.1,7.9,29.96,SW,225,2.0,13.0,76,0.00,,,0.00,Wunderground v.1.15,2013-02-05 01:45:00,
2013-02-04 20:50:00,14.2,8.0,29.96,WSW,257,2.0,13.0,76,0.00,,,0.00,Wunderground v.1.15,2013-02-05 01:50:00,
2013-02-04 20:55:00,14.2,8.0,29.96,WSW,256,3.0,13.0,76,0.00,,,0.00,Wunderground v.1.15,2013-02-05 01:55:00,
2013-02-04 21:00:00,14.1,7.9,29.96,West,276,2.0,13.0,76,0.00,,,0.00,Wunderground v.1.15,2013-02-05 02:00:00,
2013-02-04 21:06:00,14.2,8.0,29.96,NW,321,2.0,13.0,76,0.00,,,0.00,Wunderground v.1.15,2013-02-05 02:06:00,
2013-02-04 21:11:00,14.3,8.1,29.96,WSW,238,2.0,13.0,76,0.00,,,0.00,Wunderground v.1.15,2013-02-05 02:11:00,
2013-02-04 21:16:00,14.3,8.1,29.96,West,281,2.0,13.0,76,0.00,,,0.00,Wunderground v.1.15,2013-02-05 02:16:00,
2013-02-04 21:21:00,14.4,8.2,29.95,SW,214,2.0,13.0,76,0.00,,,0.00,Wunderground v.1.15,2013-02-05 02:21:00,
2013-02-04 21:26:00,14.3,8.1,29.95,West,273,1.0,13.0,76,0.00,,,0.00,Wunderground v.1.15,2013-02-05 02:26:00,
2013-02-04 21:31:00,14.3,8.4,29.96,West,265,1.0,13.0,77,0.00,,,0.00,Wunderground v.1.15,2013-02-05 02:31:00,
2013-02-04 21:37:00,14.3,8.4,29.96,SW,221,1.0,13.0,77,0.00,,,0.00,Wunderground v.1.15,2013-02-05 02:37:00,
2013-02-04 21:42:00,14.3,8.4,29.96,West,274,1.0,13.0,77,0.00,,,0.00,Wunderground v.1.15,2013-02-05 02:42:00,
2013-02-04 21:47:00,14.3,8.4,29.96,SW,235,2.0,13.0,77,0.00,,,0.00,Wunderground v.1.15,2013-02-05 02:47:00,
2013-02-04 21:52:00,14.3,8.4,29.97,WSW,242,1.0,13.0,77,0.00,,,0.00,Wunderground v.1.15,2013-02-05 02:52:00,
2013-02-04 21:57:00,14.4,8.8,29.96,West,280,1.0,13.0,78,0.00,,,0.00,Wunderground v.1.15,2013-02-05 02:57:00,
2013-02-04 22:03:00,14.4,8.8,29.97,WNW,288,2.0,13.0,78,0.00,,,0.00,Wunderground v.1.15,2013-02-05 03:03:00,
2013-02-04 22:08:00,14.4,8.8,29.96,West,278,2.0,13.0,78,0.00,,,0.00,Wunderground v.1.15,2013-02-05 03:08:00,
2013-02-04 22:13:00,14.4,9.1,29.97,SSW,206,1.0,13.0,79,0.00,,,0.00,Wunderground v.1.15,2013-02-05 03:13:00,
2013-02-04 22:19:00,14.4,9.1,29.96,West,274,1.0,13.0,79,0.00,,,0.00,Wunderground v.1.15,2013-02-05 03:19:00,
2013-02-04 22:25:00,14.4,9.1,29.97,WNW,288,1.0,13.0,79,0.00,,,0.00,Wunderground v.1.15,2013-02-05 03:25:00,
2013-02-04 22:30:00,14.4,9.1,29.97,SSW,210,2.0,13.0,79,0.00,,,0.00,Wunderground v.1.15,2013-02-05 03:30:00,
2013-02-04 22:35:00,14.4,9.1,29.97,West,264,2.0,13.0,79,0.00,,,0.00,Wunderground v.1.15,2013-02-05 03:35:00,
2013-02-04 22:40:00,14.4,9.4,29.97,WNW,284,2.0,2.0,80,0.00,,,0.00,Wunderground v.1.15,2013-02-05 03:40:00,
2013-02-04 22:45:00,14.4,9.4,29.97,WNW,283,1.0,13.0,80,0.00,,,0.00,Wunderground v.1.15,2013-02-05 03:45:00,
2013-02-04 22:51:00,14.3,9.3,29.97,SW,214,2.0,13.0,80,0.00,,,0.00,Wunderground v.1.15,2013-02-05 03:51:00,
2013-02-04 22:56:00,14.3,9.3,29.97,West,259,2.0,13.0,80,0.00,,,0.00,Wunderground v.1.15,2013-02-05 03:56:00,
2013-02-04 23:01:00,14.3,9.3,29.97,WSW,242,1.0,13.0,80,0.00,,,0.00,Wunderground v.1.15,2013-02-05 04:01:00,
2013-02-04 23:06:00,14.3,9.3,29.97,NW,314,2.0,13.0,80,0.00,,,0.00,Wunderground v.1.15,2013-02-05 04:06:00,
2013-02-04 23:11:00,14.3,9.5,29.97,WSW,242,2.0,13.0,81,0.00,,,0.00,Wunderground v.1.15,2013-02-05 04:11:00,
2013-02-04 23:17:00,14.3,9.5,29.97,West,260,1.0,13.0,81,0.00,,,0.00,Wunderground v.1.15,2013-02-05 04:17:00,
2013-02-04 23:22:00,14.3,9.5,29.97,WSW,247,1.0,13.0,81,0.00,,,0.00,Wunderground v.1.15,2013-02-05 04:22:00,
2013-02-04 23:27:00,14.3,9.8,29.97,WSW,238,1.0,13.0,82,0.00,,,0.00,Wunderground v.1.15,2013-02-05 04:27:00,
2013-02-04 23:32:00,14.3,9.8,29.97,WSW,249,1.0,13.0,82,0.00,,,0.00,Wunderground v.1.15,2013-02-05 04:32:00,
2013-02-04 23:37:00,14.3,9.8,29.97,West,281,1.0,13.0,82,0.00,,,0.00,Wunderground v.1.15,2013-02-05 04:37:00,
2013-02-04 23:43:00,14.2,9.7,29.97,WSW,248,1.0,13.0,82,0.00,,,0.00,Wunderground v.1.15,2013-02-05 04:43:00,
2013-02-04 23:48:00,14.2,10.0,29.97,SW,216,1.0,13.0,83,0.00,,,0.00,Wunderground v.1.15,2013-02-05 04:48:00,
2013-02-04 23:53:00,14.2,10.0,29.97,SW,235,1.0,13.0,83,0.00,,,0.00,Wunderground v.1.15,2013-02-05 04:53:00,
2013-02-04 23:58:00,14.2,10.0,29.97,West,259,1.0,13.0,83,0.00,,,0.00,Wunderground v.1.15,2013-02-05 04:58:00,